createdAt,value
2022-09-10T00:01:59.509Z,98319.63
2022-09-10T00:04:27.660Z,98314.03
2022-09-10T00:06:55.582Z,98312.66
2022-09-10T00:09:22.815Z,98306.81
2022-09-10T00:11:49.718Z,98311.66
2022-09-10T00:14:21.271Z,98315.66
2022-09-10T00:16:48.541Z,98318.88
2022-09-10T00:19:15.804Z,98324.53
2022-09-10T00:21:44.415Z,98318.38
2022-09-10T00:24:11.617Z,98311.72
2022-09-10T00:26:39.477Z,98312.50
2022-09-10T00:29:09.486Z,98331.38
2022-09-10T00:31:37.003Z,98323.38
2022-09-10T00:34:05.954Z,98319.09
2022-09-10T00:36:37.010Z,98330.50
2022-09-10T00:39:06.714Z,98335.31
2022-09-10T00:41:35.212Z,98332.59
2022-09-10T00:44:06.001Z,98332.31
2022-09-10T00:46:50.167Z,98325.44
2022-09-10T00:49:22.989Z,98317.69
2022-09-10T00:51:53.551Z,98316.44
2022-09-10T00:54:23.898Z,98326.03
2022-09-10T00:56:53.499Z,98322.34
2022-09-10T00:59:23.739Z,98313.25
2022-09-10T01:01:50.538Z,98311.16
2022-09-10T01:04:17.257Z,98306.59
2022-09-10T01:06:45.772Z,98316.69
2022-09-10T01:09:14.175Z,98316.06
2022-09-10T01:11:56.131Z,98330.63
2022-09-10T01:14:46.186Z,98320.41
2022-09-10T01:17:45.010Z,98325.44
2022-09-10T01:20:12.566Z,98324.69
2022-09-10T01:22:54.651Z,98322.06
2022-09-10T01:25:49.223Z,98317.00
2022-09-10T01:28:25.114Z,98315.69
2022-09-10T01:30:57.896Z,98312.97
2022-09-10T01:33:34.560Z,98315.38
2022-09-10T01:36:09.668Z,98308.44
2022-09-10T01:38:38.810Z,98314.78
2022-09-10T01:41:06.005Z,98309.09
2022-09-10T01:43:33.807Z,98314.13
2022-09-10T01:46:31.015Z,98309.56
2022-09-10T01:49:07.960Z,98319.38
2022-09-10T01:52:12.669Z,98321.63
2022-09-10T01:55:06.110Z,98323.66
2022-09-10T01:57:48.705Z,98314.72
2022-09-10T02:00:18.039Z,98311.75
2022-09-10T02:03:04.329Z,98318.44
2022-09-10T02:05:35.329Z,98321.94
2022-09-10T02:08:07.758Z,98314.31
2022-09-10T02:10:34.967Z,98309.31
2022-09-10T02:13:01.731Z,98314.78
2022-09-10T02:15:29.626Z,98322.31
2022-09-10T02:17:57.095Z,98316.59
2022-09-10T02:20:27.671Z,98324.84
2022-09-10T02:22:58.677Z,98320.06
2022-09-10T02:25:31.291Z,98328.00
2022-09-10T02:28:04.416Z,98321.56
2022-09-10T02:30:31.082Z,98326.56
2022-09-10T02:32:58.158Z,98324.97
2022-09-10T02:35:24.736Z,98317.22
2022-09-10T02:37:51.308Z,98319.66
2022-09-10T02:40:19.459Z,98326.88
2022-09-10T02:42:46.875Z,98321.28
2022-09-10T02:45:14.636Z,98323.16
2022-09-10T02:47:41.723Z,98324.22
2022-09-10T02:50:08.822Z,98316.78
2022-09-10T02:52:35.685Z,98316.97
2022-09-10T02:55:02.268Z,98315.88
2022-09-10T02:57:28.909Z,98318.28
2022-09-10T02:59:56.511Z,98309.72
2022-09-10T03:02:23.553Z,98319.34
2022-09-10T03:04:50.130Z,98313.69
2022-09-10T03:07:20.034Z,98305.16
2022-09-10T03:09:47.320Z,98293.16
2022-09-10T03:12:15.834Z,98301.75
2022-09-10T03:14:43.593Z,98300.88
2022-09-10T03:17:10.335Z,98299.53
2022-09-10T03:19:37.057Z,98296.28
2022-09-10T03:22:03.754Z,98293.56
2022-09-10T03:24:30.470Z,98302.63
2022-09-10T03:26:57.209Z,98299.97
2022-09-10T03:29:24.472Z,98308.00
2022-09-10T03:31:51.792Z,98308.47
2022-09-10T03:34:18.996Z,98306.72
2022-09-10T03:36:47.380Z,98300.50
2022-09-10T03:39:16.169Z,98305.88
2022-09-10T03:41:42.754Z,98306.88
2022-09-10T03:44:10.270Z,98297.84
2022-09-10T03:46:38.116Z,98299.69
2022-09-10T03:49:06.160Z,98298.41
2022-09-10T03:51:34.094Z,98296.09
2022-09-10T03:54:01.166Z,98302.19
2022-09-10T03:56:28.064Z,98301.13
2022-09-10T03:58:54.631Z,98299.03
2022-09-10T04:01:21.270Z,98303.22
2022-09-10T04:03:47.916Z,98300.88
2022-09-10T04:06:16.219Z,98294.50
2022-09-10T04:08:44.119Z,98306.06
2022-09-10T04:11:11.021Z,98309.28
2022-09-10T04:13:37.663Z,98313.50
2022-09-10T04:16:04.735Z,98307.06
2022-09-10T04:18:34.203Z,98315.75
2022-09-10T04:21:00.812Z,98317.03
2022-09-10T04:23:27.476Z,98313.34
2022-09-10T04:25:54.082Z,98319.16
2022-09-10T04:28:20.634Z,98325.03
2022-09-10T04:30:48.106Z,98321.81
2022-09-10T04:33:14.764Z,98324.94
2022-09-10T04:35:43.114Z,98322.22
2022-09-10T04:38:10.041Z,98317.16
2022-09-10T04:40:36.798Z,98326.03
2022-09-10T04:43:04.394Z,98324.00
2022-09-10T04:45:33.068Z,98328.38
2022-09-10T04:48:03.602Z,98336.94
2022-09-10T04:50:32.856Z,98338.03
2022-09-10T04:52:59.510Z,98338.19
2022-09-10T04:55:26.122Z,98331.09
2022-09-10T04:57:53.031Z,98327.53
2022-09-10T05:00:19.739Z,98331.72
2022-09-10T05:02:46.684Z,98333.53
2022-09-10T05:05:13.887Z,98333.34
2022-09-10T05:07:40.504Z,98339.78
2022-09-10T05:10:10.442Z,98336.50
2022-09-10T05:12:38.530Z,98339.53
2022-09-10T05:15:06.735Z,98337.88
2022-09-10T05:17:34.193Z,98341.16
2022-09-10T05:20:00.896Z,98340.91
2022-09-10T05:22:35.017Z,98351.56
2022-09-10T05:25:04.384Z,98345.94
2022-09-10T05:27:30.943Z,98348.34
2022-09-10T05:29:57.594Z,98338.34
2022-09-10T05:32:24.702Z,98333.69
2022-09-10T05:34:51.290Z,98339.50
2022-09-10T05:37:18.786Z,98334.81
2022-09-10T05:39:47.304Z,98342.25
2022-09-10T05:42:14.495Z,98345.13
2022-09-10T05:44:41.445Z,98348.84
2022-09-10T05:47:08.814Z,98347.94
2022-09-10T05:49:35.419Z,98349.97
2022-09-10T05:52:02.192Z,98352.88
2022-09-10T05:54:28.847Z,98352.22
2022-09-10T05:56:55.396Z,98350.44
2022-09-10T05:59:21.962Z,98356.50
2022-09-10T06:01:51.362Z,98360.78
2022-09-10T06:04:19.863Z,98360.78
2022-09-10T06:06:47.791Z,98360.78
2022-09-10T06:09:14.679Z,98365.44
2022-09-10T06:11:41.837Z,98371.72
2022-09-10T06:14:09.048Z,98364.47
2022-09-10T06:16:35.679Z,98371.94
2022-09-10T06:19:03.040Z,98374.84
2022-09-10T06:21:32.814Z,98363.25
2022-09-10T06:23:59.770Z,98368.16
2022-09-10T06:26:26.640Z,98364.63
2022-09-10T06:28:56.909Z,98364.47
2022-09-10T06:31:23.526Z,98366.34
2022-09-10T06:33:50.131Z,98360.19
2022-09-10T06:36:16.722Z,98362.44
2022-09-10T06:38:45.623Z,98355.03
2022-09-10T06:41:14.294Z,98366.88
2022-09-10T06:43:41.670Z,98363.50
2022-09-10T06:46:40.831Z,98370.13
2022-09-10T06:49:02.843Z,98371.97
2022-09-10T06:51:29.940Z,98369.84
2022-09-10T06:53:57.679Z,98365.44
2022-09-10T06:56:24.471Z,98373.50
2022-09-10T06:58:51.728Z,98370.00
2022-09-10T07:01:21.590Z,98375.97
2022-09-10T07:03:48.299Z,98365.09
2022-09-10T07:06:17.206Z,98363.63
2022-09-10T07:08:44.162Z,98367.81
2022-09-10T07:11:12.939Z,98360.28
2022-09-10T07:13:40.623Z,98351.31
2022-09-10T07:16:07.767Z,98355.84
2022-09-10T07:18:34.697Z,98358.59
2022-09-10T07:21:11.156Z,98353.88
2022-09-10T07:23:39.120Z,98361.28
2022-09-10T07:26:08.285Z,98355.00
2022-09-10T07:28:36.301Z,98359.94
2022-09-10T07:31:13.673Z,98354.75
2022-09-10T07:33:40.966Z,98359.97
2022-09-10T07:36:08.446Z,98355.63
2022-09-10T07:38:35.042Z,98353.28
2022-09-10T07:41:02.083Z,98357.63
2022-09-10T07:43:29.538Z,98357.38
2022-09-10T07:45:59.055Z,98356.84
2022-09-10T07:48:28.441Z,98356.22
2022-09-10T07:51:02.425Z,98350.13
2022-09-10T07:53:29.108Z,98354.59
2022-09-10T07:56:05.771Z,98363.28
2022-09-10T07:58:36.003Z,98360.97
2022-09-10T08:01:09.193Z,98367.44
2022-09-10T08:03:36.647Z,98356.56
2022-09-10T08:06:04.428Z,98366.22
2022-09-10T08:08:32.985Z,98361.53
2022-09-10T08:11:17.524Z,98367.22
2022-09-10T08:13:46.449Z,98367.22
2022-09-10T08:16:16.133Z,98367.91
2022-09-10T08:18:43.790Z,98382.97
2022-09-10T08:21:11.090Z,98378.66
2022-09-10T08:23:39.600Z,98387.53
2022-09-10T08:26:08.176Z,98390.53
2022-09-10T08:28:36.098Z,98385.47
2022-09-10T08:31:07.778Z,98389.75
2022-09-10T08:33:36.360Z,98388.16
2022-09-10T08:36:04.792Z,98386.59
2022-09-10T08:38:33.703Z,98394.34
2022-09-10T08:41:02.515Z,98393.53
2022-09-10T08:43:41.827Z,98396.53
2022-09-10T08:46:21.229Z,98404.56
2022-09-10T08:48:55.131Z,98400.81
2022-09-10T08:51:30.053Z,98407.50
2022-09-10T08:54:02.709Z,98403.78
2022-09-10T08:56:30.257Z,98408.38
2022-09-10T08:59:03.825Z,98415.84
2022-09-10T09:01:50.136Z,98412.13
2022-09-10T09:04:35.635Z,98407.31
2022-09-10T09:07:11.598Z,98409.44
2022-09-10T09:09:38.193Z,98418.56
2022-09-10T09:12:22.059Z,98419.09
2022-09-10T09:14:50.606Z,98425.00
2022-09-10T09:17:44.761Z,98405.19
2022-09-10T09:20:25.744Z,98414.28
2022-09-10T09:22:55.738Z,98416.97
2022-09-10T09:25:33.064Z,98410.56
2022-09-10T09:28:00.569Z,98415.38
2022-09-10T09:30:37.179Z,98418.59
2022-09-10T09:33:13.990Z,98419.38
2022-09-10T09:35:49.504Z,98409.50
2022-09-10T09:38:24.838Z,98415.66
2022-09-10T09:40:56.570Z,98411.13
2022-09-10T09:43:58.929Z,98409.50
2022-09-10T09:46:25.916Z,98407.34
2022-09-10T09:48:57.871Z,98407.09
2022-09-10T09:51:27.016Z,98403.88
2022-09-10T09:54:25.780Z,98395.56
2022-09-10T09:56:49.931Z,98385.13
2022-09-10T09:59:34.729Z,98388.34
2022-09-10T10:02:11.981Z,98395.56
2022-09-10T10:04:42.439Z,98391.84
2022-09-10T10:07:09.511Z,98384.03
2022-09-10T10:09:43.106Z,98377.34
2022-09-10T10:12:20.726Z,98374.66
2022-09-10T10:14:47.351Z,98382.16
2022-09-10T10:17:31.282Z,98381.56
2022-09-10T10:20:13.380Z,98375.34
2022-09-10T10:22:45.437Z,98376.41
2022-09-10T10:25:43.168Z,98384.81
2022-09-10T10:28:20.054Z,98384.25
2022-09-10T10:30:55.347Z,98371.94
2022-09-10T10:33:28.852Z,98379.75
2022-09-10T10:36:15.437Z,98385.63
2022-09-10T10:38:51.685Z,98378.13
2022-09-10T10:41:41.213Z,98378.13
2022-09-10T10:44:37.022Z,98370.38
2022-09-10T10:47:16.911Z,98366.91
2022-09-10T10:50:00.011Z,98365.81
2022-09-10T10:52:40.669Z,98369.81
2022-09-10T10:55:28.575Z,98367.69
2022-09-10T10:58:10.321Z,98369.81
2022-09-10T11:00:48.496Z,98370.56
2022-09-10T11:03:29.410Z,98364.31
2022-09-10T11:06:04.979Z,98366.97
2022-09-10T11:08:40.500Z,98373.41
2022-09-10T11:11:16.538Z,98371.78
2022-09-10T11:13:51.538Z,98370.22
2022-09-10T11:16:31.852Z,98366.72
2022-09-10T11:19:09.435Z,98364.56
2022-09-10T11:21:58.804Z,98366.94
2022-09-10T11:24:34.155Z,98364.25
2022-09-10T11:27:14.441Z,98363.13
2022-09-10T11:29:48.409Z,98368.44
2022-09-10T11:32:30.182Z,98357.13
2022-09-10T11:35:32.891Z,98357.66
2022-09-10T11:38:20.706Z,98350.94
2022-09-10T11:40:52.177Z,98353.94
2022-09-10T11:43:33.320Z,98350.75
2022-09-10T11:46:08.111Z,98354.28
2022-09-10T11:48:48.395Z,98345.75
2022-09-10T11:51:24.249Z,98339.75
2022-09-10T11:53:51.300Z,98343.44
2022-09-10T11:56:33.269Z,98339.25
2022-09-10T11:58:59.884Z,98338.94
2022-09-10T12:01:58.379Z,98335.84
2022-09-10T12:04:50.887Z,98338.09
2022-09-10T12:07:39.022Z,98326.56
2022-09-10T12:10:32.858Z,98326.22
2022-09-10T12:12:59.762Z,98330.50
2022-09-10T12:15:31.166Z,98327.09
2022-09-10T12:18:04.195Z,98326.59
2022-09-10T12:20:36.834Z,98335.31
2022-09-10T12:23:05.014Z,98321.38
2022-09-10T12:25:34.794Z,98314.88
2022-09-10T12:28:08.080Z,98319.66
2022-09-10T12:30:36.010Z,98323.97
2022-09-10T12:33:24.727Z,98312.66
2022-09-10T12:35:52.347Z,98312.91
2022-09-10T12:38:49.907Z,98305.44
2022-09-10T12:41:37.226Z,98300.06
2022-09-10T12:44:43.624Z,98295.38
2022-09-10T12:47:42.733Z,98289.63
2022-09-10T12:50:22.044Z,98282.16
2022-09-10T12:52:51.620Z,98287.53
2022-09-10T12:55:42.791Z,98275.16
2022-09-10T12:58:34.409Z,98277.03
2022-09-10T13:01:17.432Z,98278.25
2022-09-10T13:03:54.991Z,98282.78
2022-09-10T13:06:35.229Z,98273.53
2022-09-10T13:09:14.783Z,98274.63
2022-09-10T13:11:46.241Z,98275.72
2022-09-10T13:14:22.190Z,98282.41
2022-09-10T13:16:51.229Z,98276.50
2022-09-10T13:19:19.486Z,98272.16
2022-09-10T13:21:48.063Z,98271.63
2022-09-10T13:24:38.629Z,98278.66
2022-09-10T13:27:22.650Z,98268.88
2022-09-10T13:29:56.546Z,98277.38
2022-09-10T13:32:29.537Z,98281.78
2022-09-10T13:35:06.561Z,98283.72
2022-09-10T13:38:00.427Z,98290.75
2022-09-10T13:40:57.523Z,98312.28
2022-09-10T13:43:23.997Z,98303.22
2022-09-10T13:45:57.142Z,98309.84
2022-09-10T13:49:00.151Z,98304.38
2022-09-10T13:51:36.788Z,98315.06
2022-09-10T13:54:25.031Z,98332.59
2022-09-10T13:56:52.606Z,98373.53
2022-09-10T13:59:28.831Z,98383.25
2022-09-10T14:01:56.024Z,98387.00
2022-09-10T14:04:26.240Z,98376.53
2022-09-10T14:06:57.849Z,98363.13
2022-09-10T14:09:26.144Z,98374.00
2022-09-10T14:11:53.602Z,98365.22
2022-09-10T14:14:25.688Z,98358.44
2022-09-10T14:16:56.278Z,98356.78
2022-09-10T14:19:27.330Z,98343.91
2022-09-10T14:21:55.672Z,98348.16
2022-09-10T14:24:48.666Z,98343.03
2022-09-10T14:27:21.942Z,98341.69
2022-09-10T14:29:50.371Z,98336.91
2022-09-10T14:32:37.389Z,98324.41
2022-09-10T14:35:39.250Z,98345.22
2022-09-10T14:38:21.377Z,98337.97
2022-09-10T14:40:48.195Z,98334.22
2022-09-10T14:43:26.320Z,98339.28
2022-09-10T14:45:53.772Z,98336.34
2022-09-10T14:48:55.615Z,98338.78
2022-09-10T14:51:22.866Z,98333.94
2022-09-10T14:53:52.920Z,98333.78
2022-09-10T14:56:37.492Z,98329.47
2022-09-10T14:59:34.586Z,98327.63
2022-09-10T15:02:05.742Z,98335.94
2022-09-10T15:04:32.372Z,98330.06
2022-09-10T15:07:00.801Z,98331.88
2022-09-10T15:09:29.198Z,98331.09
2022-09-10T15:12:12.067Z,98334.56
2022-09-10T15:14:39.082Z,98346.34
2022-09-10T15:17:05.691Z,98339.09
2022-09-10T15:19:32.366Z,98335.88
2022-09-10T15:21:59.698Z,98332.41
2022-09-10T15:24:26.415Z,98340.16
2022-09-10T15:26:53.038Z,98335.09
2022-09-10T15:29:19.703Z,98334.06
2022-09-10T15:31:47.328Z,98338.06
2022-09-10T15:34:14.426Z,98328.44
2022-09-10T15:36:41.811Z,98336.16
2022-09-10T15:39:12.208Z,98330.81
2022-09-10T15:41:44.287Z,98334.34
2022-09-10T15:44:11.752Z,98335.41
2022-09-10T15:46:45.239Z,98329.75
2022-09-10T15:49:12.230Z,98339.06
2022-09-10T15:51:39.294Z,98342.81
2022-09-10T15:54:06.269Z,98331.63
2022-09-10T15:56:33.342Z,98335.88
2022-09-10T15:59:00.915Z,98326.53
2022-09-10T16:01:29.104Z,98321.19
2022-09-10T16:03:58.213Z,98331.31
2022-09-10T16:06:27.906Z,98330.28
2022-09-10T16:08:57.441Z,98332.41
2022-09-10T16:11:25.229Z,98330.31
2022-09-10T16:13:52.320Z,98331.44
2022-09-10T16:16:20.850Z,98327.41
2022-09-10T16:18:48.164Z,98325.25
2022-09-10T16:21:18.607Z,98319.09
2022-09-10T16:23:47.218Z,98322.09
2022-09-10T16:26:17.770Z,98317.22
2022-09-10T16:29:00.486Z,98313.44
2022-09-10T16:31:31.484Z,98312.06
2022-09-10T16:34:00.082Z,98304.59
2022-09-10T16:36:27.397Z,98307.25
2022-09-10T16:38:55.902Z,98303.22
2022-09-10T16:41:24.314Z,98308.03
2022-09-10T16:43:51.785Z,98304.50
2022-09-10T16:46:18.610Z,98302.66
2022-09-10T16:48:45.846Z,98309.03
2022-09-10T16:51:14.755Z,98312.75
2022-09-10T16:53:44.352Z,98315.19
2022-09-10T16:56:13.462Z,98314.38
2022-09-10T16:58:41.456Z,98312.75
2022-09-10T17:01:09.522Z,98313.03
2022-09-10T17:03:40.954Z,98305.00
2022-09-10T17:06:14.822Z,98305.00
2022-09-10T17:08:41.603Z,98311.13
2022-09-10T17:11:09.383Z,98304.22
2022-09-10T17:13:36.137Z,98307.38
2022-09-10T17:16:23.944Z,98313.00
2022-09-10T17:18:57.437Z,98304.97
2022-09-10T17:21:25.905Z,98303.38
2022-09-10T17:23:53.801Z,98301.56
2022-09-10T17:26:20.451Z,98299.88
2022-09-10T17:28:57.928Z,98299.09
2022-09-10T17:31:25.736Z,98309.16
2022-09-10T17:33:52.298Z,98314.75
2022-09-10T17:36:19.761Z,98311.56
2022-09-10T17:38:47.360Z,98321.72
2022-09-10T17:41:14.631Z,98314.75
2022-09-10T17:43:43.276Z,98317.97
2022-09-10T17:46:14.929Z,98323.56
2022-09-10T17:48:45.655Z,98320.59
2022-09-10T17:51:15.659Z,98321.34
2022-09-10T17:53:43.444Z,98325.34
2022-09-10T17:56:12.439Z,98328.53
2022-09-10T17:58:39.251Z,98327.72
2022-09-10T18:01:10.565Z,98334.22
2022-09-10T18:03:37.637Z,98329.91
2022-09-10T18:06:06.476Z,98328.47
2022-09-10T18:08:33.615Z,98327.91
2022-09-10T18:11:05.768Z,98334.25
2022-09-10T18:13:35.067Z,98333.50
2022-09-10T18:16:12.075Z,98329.97
2022-09-10T18:18:39.371Z,98333.16
2022-09-10T18:21:15.678Z,98331.00
2022-09-10T18:23:44.428Z,98336.59
2022-09-10T18:26:16.116Z,98342.97
2022-09-10T18:28:44.126Z,98340.34
2022-09-10T18:31:11.365Z,98341.09
2022-09-10T18:33:43.450Z,98337.59
2022-09-10T18:36:13.163Z,98348.53
2022-09-10T18:38:40.300Z,98346.91
2022-09-10T18:41:18.854Z,98348.53
2022-09-10T18:43:46.623Z,98355.13
2022-09-10T18:46:13.596Z,98354.31
2022-09-10T18:48:40.759Z,98352.72
2022-09-10T18:51:10.726Z,98360.72
2022-09-10T18:53:40.358Z,98362.28
2022-09-10T18:56:09.960Z,98367.03
2022-09-10T18:58:37.406Z,98372.41
2022-09-10T19:01:07.044Z,98367.09
2022-09-10T19:03:36.309Z,98363.63
2022-09-10T19:06:05.974Z,98365.00
2022-09-10T19:08:34.042Z,98362.06
2022-09-10T19:11:02.161Z,98363.38
2022-09-10T19:13:29.888Z,98370.81
2022-09-10T19:15:59.459Z,98368.91
2022-09-10T19:18:29.112Z,98371.00
2022-09-10T19:20:56.477Z,98363.53
2022-09-10T19:23:23.946Z,98362.22
2022-09-10T19:25:56.128Z,98367.50
2022-09-10T19:28:23.778Z,98376.59
2022-09-10T19:30:52.092Z,98378.56
2022-09-10T19:33:18.754Z,98381.41
2022-09-10T19:35:45.897Z,98380.97
2022-09-10T19:38:34.281Z,98381.41
2022-09-10T19:41:10.849Z,98381.50
2022-09-10T19:43:37.684Z,98383.44
2022-09-10T19:46:05.905Z,98387.09
2022-09-10T19:48:33.552Z,98386.81
2022-09-10T19:51:02.236Z,98377.13
2022-09-10T19:53:31.479Z,98386.53
2022-09-10T19:56:19.759Z,98394.03
2022-09-10T19:58:51.539Z,98394.59
2022-09-10T20:01:19.983Z,98391.38
2022-09-10T20:03:48.213Z,98388.19
2022-09-10T20:06:18.390Z,98387.72
2022-09-10T20:08:47.205Z,98378.41
2022-09-10T20:11:32.929Z,98381.63
2022-09-10T20:14:02.334Z,98381.88
2022-09-10T20:16:29.960Z,98376.75
2022-09-10T20:18:57.122Z,98381.75
2022-09-10T20:21:26.935Z,98385.53
2022-09-10T20:23:56.394Z,98383.44
2022-09-10T20:26:27.161Z,98384.22
2022-09-10T20:28:57.974Z,98388.09
2022-09-10T20:31:27.120Z,98384.28
2022-09-10T20:33:56.383Z,98387.16
2022-09-10T20:36:24.054Z,98383.09
2022-09-10T20:38:51.840Z,98386.72
2022-09-10T20:41:18.666Z,98392.19
2022-09-10T20:43:51.727Z,98391.94
2022-09-10T20:46:20.484Z,98386.09
2022-09-10T20:48:49.269Z,98390.72
2022-09-10T20:51:17.986Z,98380.84
2022-09-10T20:53:45.014Z,98387.53
2022-09-10T20:56:14.155Z,98377.91
2022-09-10T20:58:41.493Z,98373.66
2022-09-10T21:01:09.364Z,98375.50
2022-09-10T21:03:36.961Z,98377.63
2022-09-10T21:06:04.395Z,98371.50
2022-09-10T21:08:32.059Z,98379.22
2022-09-10T21:11:04.997Z,98378.63
2022-09-10T21:13:34.187Z,98375.72
2022-09-10T21:16:08.882Z,98378.13
2022-09-10T21:18:41.790Z,98376.81
2022-09-10T21:21:11.831Z,98376.56
2022-09-10T21:23:47.623Z,98375.44
2022-09-10T21:26:18.163Z,98372.53
2022-09-10T21:28:45.035Z,98371.38
2022-09-10T21:31:12.995Z,98383.00
2022-09-10T21:33:41.939Z,98380.28
2022-09-10T21:36:11.719Z,98375.25
2022-09-10T21:38:39.346Z,98370.81
2022-09-10T21:41:08.442Z,98372.44
2022-09-10T21:43:35.570Z,98373.97
2022-09-10T21:46:04.417Z,98376.63
2022-09-10T21:48:35.843Z,98374.69
2022-09-10T21:51:06.010Z,98378.72
2022-09-10T21:53:34.147Z,98374.94
2022-09-10T21:56:02.867Z,98376.75
2022-09-10T21:58:33.209Z,98377.03
2022-09-10T22:00:59.921Z,98385.09
2022-09-10T22:03:29.520Z,98386.22
2022-09-10T22:06:05.442Z,98380.19
2022-09-10T22:08:33.458Z,98384.94
2022-09-10T22:11:09.873Z,98382.28
2022-09-10T22:13:37.964Z,98386.56
2022-09-10T22:16:06.100Z,98384.84
2022-09-10T22:18:34.199Z,98379.22
2022-09-10T22:21:01.091Z,98392.53
2022-09-10T22:23:30.351Z,98391.09
2022-09-10T22:26:03.321Z,98404.47
2022-09-10T22:28:35.085Z,98411.38
2022-09-10T22:31:13.015Z,98403.41
2022-09-10T22:33:41.830Z,98399.69
2022-09-10T22:36:30.848Z,98403.97
2022-09-10T22:39:00.085Z,98406.94
2022-09-10T22:41:28.341Z,98409.16
2022-09-10T22:43:55.296Z,98400.13
2022-09-10T22:46:24.140Z,98395.66
2022-09-10T22:48:51.053Z,98392.41
2022-09-10T22:51:20.391Z,98393.72
2022-09-10T22:53:48.105Z,98393.72
2022-09-10T22:56:17.078Z,98391.31
2022-09-10T22:58:44.993Z,98395.91
2022-09-10T23:01:14.124Z,98394.09
2022-09-10T23:03:41.659Z,98395.34
2022-09-10T23:06:08.419Z,98392.91
2022-09-10T23:08:36.814Z,98391.81
2022-09-10T23:11:15.303Z,98402.16
2022-09-10T23:13:43.848Z,98393.84
2022-09-10T23:16:12.943Z,98397.09
2022-09-10T23:18:41.326Z,98393.38
2022-09-10T23:21:09.062Z,98392.31
2022-09-10T23:23:36.287Z,98390.44
2022-09-10T23:26:07.062Z,98400.06
2022-09-10T23:28:33.778Z,98396.38
2022-09-10T23:31:10.472Z,98392.91
2022-09-10T23:33:37.109Z,98396.19
2022-09-10T23:36:04.270Z,98387.91
2022-09-10T23:38:31.498Z,98389.16
2022-09-10T23:41:00.243Z,98391.00
2022-09-10T23:43:29.902Z,98379.78
2022-09-10T23:45:56.597Z,98381.69
2022-09-10T23:48:24.518Z,98379.78
2022-09-10T23:50:52.279Z,98384.00
2022-09-10T23:53:19.340Z,98389.09
2022-09-10T23:55:46.204Z,98388.22
2022-09-10T23:58:12.854Z,98378.25
